createdAt,value
2022-07-29T00:02:22.341Z,1.33
2022-07-29T00:07:27.813Z,1.20
2022-07-29T00:12:35.816Z,1.13
2022-07-29T00:17:41.992Z,1.25
2022-07-29T00:22:47.353Z,1.65
2022-07-29T00:27:55.382Z,1.53
2022-07-29T00:33:00.832Z,1.50
2022-07-29T00:38:06.675Z,1.20
2022-07-29T00:43:15.374Z,1.40
2022-07-29T00:48:20.705Z,1.10
2022-07-29T00:53:26.370Z,1.48
2022-07-29T00:58:35.643Z,1.20
2022-07-29T01:03:40.953Z,1.50
2022-07-29T01:08:46.705Z,1.40
2022-07-29T01:13:56.387Z,1.30
2022-07-29T01:19:16.764Z,1.00
2022-07-29T01:24:44.167Z,1.17
2022-07-29T01:29:56.170Z,1.27
2022-07-29T01:35:07.804Z,1.48
2022-07-29T01:40:22.255Z,1.20
2022-07-29T01:45:35.731Z,1.20
2022-07-29T01:50:49.329Z,1.23
2022-07-29T01:55:55.740Z,1.10
2022-07-29T02:01:08.939Z,1.20
2022-07-29T02:06:16.389Z,1.15
2022-07-29T02:11:22.150Z,1.13
2022-07-29T02:16:32.739Z,1.30
2022-07-29T02:21:39.345Z,1.65
2022-07-29T02:26:46.839Z,1.25
2022-07-29T02:31:56.672Z,1.13
2022-07-29T02:37:03.770Z,1.30
2022-07-29T02:42:12.214Z,1.67
2022-07-29T02:47:22.973Z,2.00
2022-07-29T02:52:33.599Z,2.22
2022-07-29T02:57:54.563Z,2.20
2022-07-29T03:03:07.356Z,2.47
2022-07-29T03:08:15.620Z,2.30
2022-07-29T03:13:21.635Z,2.15
2022-07-29T03:18:29.814Z,1.80
2022-07-29T03:23:36.922Z,1.73
2022-07-29T03:28:42.488Z,1.85
2022-07-29T03:33:50.918Z,1.83
2022-07-29T03:38:56.989Z,2.10
2022-07-29T03:44:06.058Z,1.95
2022-07-29T03:49:16.256Z,2.30
2022-07-29T03:54:22.108Z,2.10
2022-07-29T03:59:27.971Z,1.93
2022-07-29T04:04:37.256Z,2.00
2022-07-29T04:09:42.688Z,1.95
2022-07-29T04:14:48.220Z,1.90
2022-07-29T04:19:56.538Z,2.28
2022-07-29T04:25:04.274Z,1.67
2022-07-29T04:30:11.559Z,2.13
2022-07-29T04:35:19.437Z,1.63
2022-07-29T04:40:25.001Z,1.63
2022-07-29T04:45:30.494Z,1.50
2022-07-29T04:50:38.666Z,1.77
2022-07-29T04:55:44.019Z,2.05
2022-07-29T05:00:49.310Z,2.40
2022-07-29T05:05:57.257Z,2.50
2022-07-29T05:11:12.011Z,2.03
2022-07-29T05:16:18.150Z,2.03
2022-07-29T05:21:26.180Z,2.20
2022-07-29T05:26:31.862Z,1.90
2022-07-29T05:31:37.344Z,2.72
2022-07-29T05:36:47.609Z,2.13
2022-07-29T05:41:53.037Z,2.40
2022-07-29T05:46:58.361Z,1.52
2022-07-29T05:52:06.759Z,2.00
2022-07-29T05:57:12.518Z,2.10
2022-07-29T06:02:18.145Z,1.90
2022-07-29T06:07:26.103Z,1.85
2022-07-29T06:12:31.655Z,2.10
2022-07-29T06:17:37.503Z,1.70
2022-07-29T06:23:05.611Z,1.73
2022-07-29T06:28:10.949Z,1.90
2022-07-29T06:33:20.535Z,1.83
2022-07-29T06:38:31.416Z,2.22
2022-07-29T06:43:50.730Z,2.20
2022-07-29T06:49:01.676Z,1.67
2022-07-29T06:54:10.080Z,2.30
2022-07-29T06:59:16.792Z,1.70
2022-07-29T07:04:22.183Z,2.10
2022-07-29T07:09:31.120Z,2.00
2022-07-29T07:14:46.095Z,2.10
2022-07-29T07:19:51.445Z,1.93
2022-07-29T07:24:59.919Z,2.20
2022-07-29T07:30:06.688Z,2.47
2022-07-29T07:35:13.306Z,2.65
2022-07-29T07:40:21.652Z,2.80
2022-07-29T07:45:27.026Z,2.38
2022-07-29T07:50:32.477Z,2.17
2022-07-29T08:01:09.931Z,2.92
2022-07-29T08:06:15.414Z,2.70
2022-07-29T08:11:24.357Z,2.63
2022-07-29T08:16:29.909Z,3.27
2022-07-29T08:21:35.458Z,2.60
2022-07-29T08:26:45.851Z,1.80
2022-07-29T08:31:51.593Z,3.30
2022-07-29T08:36:57.097Z,2.65
2022-07-29T08:42:05.187Z,3.47
2022-07-29T08:47:10.838Z,2.50
2022-07-29T08:52:17.704Z,2.80
2022-07-29T08:57:28.815Z,3.08
2022-07-29T09:02:43.202Z,3.10
2022-07-29T09:07:52.210Z,2.47
2022-07-29T09:13:02.199Z,3.17
2022-07-29T09:18:07.587Z,2.92
2022-07-29T09:23:25.309Z,2.93
2022-07-29T09:28:33.513Z,2.80
2022-07-29T09:33:41.255Z,2.50
2022-07-29T09:38:46.636Z,2.30
2022-07-29T09:44:00.760Z,2.22
2022-07-29T09:49:13.643Z,2.50
2022-07-29T09:54:29.028Z,2.10
2022-07-29T09:59:37.310Z,1.87
2022-07-29T10:04:56.345Z,2.58
2022-07-29T10:10:02.961Z,2.60
2022-07-29T10:15:11.746Z,2.87
2022-07-29T10:20:18.150Z,2.30
2022-07-29T10:25:24.903Z,3.50
2022-07-29T10:30:32.867Z,2.80
2022-07-29T10:35:50.793Z,2.63
2022-07-29T10:46:45.720Z,2.40
2022-07-29T10:57:53.489Z,4.35
2022-07-29T11:02:59.516Z,3.60
2022-07-29T11:08:27.861Z,3.70
2022-07-29T11:13:56.114Z,3.03
2022-07-29T11:19:30.625Z,3.00
2022-07-29T11:24:37.016Z,3.23
2022-07-29T11:29:51.204Z,2.78
2022-07-29T11:35:27.717Z,2.72
2022-07-29T11:40:44.006Z,2.40
2022-07-29T11:45:50.694Z,2.33
2022-07-29T11:50:58.873Z,2.83
2022-07-29T11:56:05.087Z,2.38
2022-07-29T12:01:10.664Z,2.27
2022-07-29T12:06:21.004Z,2.40
2022-07-29T12:11:26.592Z,2.60
2022-07-29T12:16:39.888Z,3.00
2022-07-29T12:21:56.874Z,2.67
2022-07-29T12:27:04.813Z,2.97
2022-07-29T12:32:14.373Z,3.20
2022-07-29T12:37:41.287Z,3.17
2022-07-29T12:43:17.516Z,3.53
2022-07-29T12:48:37.582Z,3.97
2022-07-29T12:53:45.654Z,4.40
2022-07-29T12:58:51.576Z,3.85
2022-07-29T13:03:59.648Z,3.45
2022-07-29T13:09:17.218Z,3.63
2022-07-29T13:14:35.240Z,3.13
2022-07-29T13:19:42.435Z,3.20
2022-07-29T13:24:56.177Z,3.17
2022-07-29T13:30:03.126Z,3.20
2022-07-29T13:35:12.800Z,3.60
2022-07-29T13:40:21.399Z,3.65
2022-07-29T13:45:29.143Z,2.80
2022-07-29T13:50:34.824Z,3.17
2022-07-29T13:55:42.870Z,3.50
2022-07-29T14:00:48.381Z,3.93
2022-07-29T14:05:53.862Z,2.92
2022-07-29T14:11:02.232Z,3.20
2022-07-29T14:16:08.256Z,3.30
2022-07-29T14:21:13.642Z,3.03
2022-07-29T14:26:24.379Z,2.90
2022-07-29T14:31:30.013Z,3.15
2022-07-29T14:36:35.927Z,3.47
2022-07-29T14:41:44.002Z,2.70
2022-07-29T14:46:49.489Z,3.08
2022-07-29T14:51:55.351Z,2.80
2022-07-29T14:57:03.525Z,3.00
2022-07-29T15:02:09.068Z,3.63
2022-07-29T15:07:15.036Z,3.07
2022-07-29T15:12:23.022Z,3.00
2022-07-29T15:17:30.286Z,2.35
2022-07-29T15:22:36.005Z,2.20
2022-07-29T15:27:48.840Z,3.17
2022-07-29T15:32:57.768Z,3.10
2022-07-29T15:38:03.133Z,3.10
2022-07-29T15:43:11.667Z,2.90
2022-07-29T15:48:16.959Z,2.80
2022-07-29T15:53:23.774Z,2.72
2022-07-29T15:58:31.968Z,2.70
2022-07-29T16:03:37.543Z,3.00
2022-07-29T16:08:43.001Z,2.50
2022-07-29T16:13:50.976Z,2.30
2022-07-29T16:18:56.415Z,2.63
2022-07-29T16:24:03.790Z,2.10
2022-07-29T16:29:12.020Z,2.25
2022-07-29T16:34:17.432Z,2.23
2022-07-29T16:39:24.506Z,2.38
2022-07-29T16:44:33.368Z,2.10
2022-07-29T16:49:40.299Z,2.47
2022-07-29T16:54:45.831Z,2.70
2022-07-29T16:59:54.112Z,2.53
2022-07-29T17:04:59.592Z,2.10
2022-07-29T17:10:09.932Z,3.13
2022-07-29T17:15:19.095Z,2.38
2022-07-29T17:20:24.604Z,2.38
2022-07-29T17:25:30.431Z,2.20
2022-07-29T17:30:38.347Z,2.78
2022-07-29T17:35:56.087Z,2.58
2022-07-29T17:41:01.592Z,2.43
2022-07-29T17:46:15.857Z,2.70
2022-07-29T17:51:21.506Z,2.40
2022-07-29T17:56:29.882Z,2.47
2022-07-29T18:01:38.214Z,2.60
2022-07-29T18:06:43.680Z,2.70
2022-07-29T18:11:49.326Z,2.40
2022-07-29T18:16:58.081Z,2.40
2022-07-29T18:22:05.295Z,2.22
2022-07-29T18:27:11.439Z,2.50
2022-07-29T18:32:19.373Z,2.90
2022-07-29T18:38:01.696Z,2.67
2022-07-29T18:43:00.970Z,2.35
2022-07-29T18:48:13.287Z,2.38
2022-07-29T18:53:19.381Z,2.43
2022-07-29T18:58:24.858Z,2.10
2022-07-29T19:03:32.838Z,2.50
2022-07-29T19:08:38.139Z,2.10
2022-07-29T19:13:43.701Z,2.40
2022-07-29T19:18:51.686Z,2.08
2022-07-29T19:24:05.896Z,2.47
2022-07-29T19:29:13.420Z,1.93
2022-07-29T19:34:21.506Z,2.72
2022-07-29T19:39:35.295Z,2.42
2022-07-29T19:44:41.024Z,2.40
2022-07-29T19:49:48.978Z,2.30
2022-07-29T19:54:54.390Z,2.40
2022-07-29T20:00:00.237Z,2.53
2022-07-29T20:05:09.625Z,2.72
2022-07-29T20:10:14.949Z,2.53
2022-07-29T20:15:20.562Z,2.60
2022-07-29T20:20:29.988Z,2.73
2022-07-29T20:25:35.668Z,2.63
2022-07-29T20:30:41.825Z,2.35
2022-07-29T20:35:52.668Z,4.67
2022-07-29T20:40:58.865Z,6.47
2022-07-29T20:46:04.245Z,5.25
2022-07-29T20:51:12.390Z,4.33
2022-07-29T20:56:17.776Z,4.70
2022-07-29T21:01:23.208Z,3.45
2022-07-29T21:06:31.168Z,3.10
2022-07-29T21:11:44.737Z,2.60
2022-07-29T21:16:50.814Z,3.00
2022-07-29T21:21:58.738Z,3.00
2022-07-29T21:27:21.339Z,2.33
2022-07-29T21:32:30.175Z,2.70
2022-07-29T21:37:38.603Z,2.40
2022-07-29T21:42:44.654Z,2.77
2022-07-29T21:47:51.062Z,2.30
2022-07-29T21:52:59.169Z,2.85
2022-07-29T21:58:06.680Z,2.47
2022-07-29T22:03:11.978Z,3.00
2022-07-29T22:08:19.887Z,2.63
2022-07-29T22:13:25.492Z,2.50
2022-07-29T22:18:30.884Z,2.90
2022-07-29T22:23:40.564Z,3.20
2022-07-29T22:28:47.820Z,2.63
2022-07-29T22:33:53.866Z,2.87
2022-07-29T22:39:02.224Z,3.10
2022-07-29T22:44:08.000Z,3.20
2022-07-29T22:49:13.412Z,2.77
2022-07-29T22:54:21.368Z,3.20
2022-07-29T22:59:26.778Z,2.83
2022-07-29T23:04:32.263Z,3.25
2022-07-29T23:09:43.001Z,2.70
2022-07-29T23:14:48.342Z,2.83
2022-07-29T23:19:53.913Z,3.28
2022-07-29T23:25:01.902Z,3.80
2022-07-29T23:30:08.817Z,3.20
2022-07-29T23:35:14.162Z,3.30
2022-07-29T23:40:22.215Z,3.93
2022-07-29T23:45:39.921Z,4.50
2022-07-29T23:50:50.410Z,3.67
2022-07-29T23:55:58.374Z,3.90
